createdAt,value
2022-07-27T00:07:17.075Z,100.00
2022-07-27T00:15:38.737Z,100.00
2022-07-27T00:24:00.696Z,100.00
2022-07-27T00:32:22.347Z,100.00
2022-07-27T00:40:43.937Z,100.00
2022-07-27T00:49:06.025Z,100.00
2022-07-27T00:57:28.287Z,100.00
2022-07-27T01:05:49.935Z,100.00
2022-07-27T01:14:12.655Z,100.00
2022-07-27T01:22:34.295Z,100.00
2022-07-27T01:30:56.248Z,100.00
2022-07-27T01:39:18.185Z,100.00
2022-07-27T01:47:39.755Z,100.00
2022-07-27T01:56:01.386Z,100.00
2022-07-27T02:04:24.967Z,100.00
2022-07-27T02:12:46.615Z,100.00
2022-07-27T02:21:08.294Z,100.00
2022-07-27T02:29:30.814Z,100.00
2022-07-27T02:37:52.536Z,100.00
2022-07-27T02:46:14.184Z,100.00
2022-07-27T02:54:35.856Z,100.00
2022-07-27T03:03:00.537Z,100.00
2022-07-27T03:11:22.136Z,100.00
2022-07-27T03:19:43.715Z,100.00
2022-07-27T03:28:05.455Z,100.00
2022-07-27T03:36:27.056Z,100.00
2022-07-27T03:44:48.989Z,100.00
2022-07-27T03:53:10.645Z,100.00
2022-07-27T04:01:32.326Z,100.00
2022-07-27T04:09:53.983Z,100.00
2022-07-27T04:18:15.616Z,100.00
2022-07-27T04:26:37.373Z,100.00
2022-07-27T04:34:59.023Z,100.00
2022-07-27T04:43:20.704Z,100.00
2022-07-27T04:51:43.296Z,100.00
2022-07-27T05:00:05.696Z,100.00
2022-07-27T05:08:27.304Z,100.00
2022-07-27T05:16:49.482Z,100.00
2022-07-27T05:25:11.153Z,100.00
2022-07-27T05:33:33.104Z,100.00
2022-07-27T05:41:54.723Z,100.00
2022-07-27T05:50:16.857Z,100.00
2022-07-27T05:58:38.770Z,100.00
2022-07-27T06:07:19.019Z,100.00
2022-07-27T06:15:40.816Z,100.00
2022-07-27T06:24:02.400Z,100.00
2022-07-27T06:32:24.029Z,100.00
2022-07-27T06:40:45.688Z,100.00
2022-07-27T06:49:08.434Z,100.00
2022-07-27T06:57:30.157Z,100.00
2022-07-27T07:05:51.976Z,100.00
2022-07-27T07:14:13.723Z,100.00
2022-07-27T07:22:35.398Z,100.00
2022-07-27T07:30:57.091Z,100.00
2022-07-27T07:39:18.751Z,100.00
2022-07-27T07:47:40.365Z,100.00
2022-07-27T07:56:02.988Z,100.00
2022-07-27T08:04:24.598Z,100.00
2022-07-27T08:12:47.829Z,100.00
2022-07-27T08:21:09.674Z,100.00
2022-07-27T08:29:36.989Z,100.00
2022-07-27T08:37:59.994Z,100.00
2022-07-27T08:46:21.602Z,100.00
2022-07-27T08:54:43.256Z,84.19
2022-07-27T09:03:04.979Z,85.92
2022-07-27T09:11:26.597Z,75.02
2022-07-27T09:20:02.212Z,82.08
2022-07-27T09:28:29.640Z,93.23
2022-07-27T09:36:52.822Z,85.57
2022-07-27T09:45:27.606Z,81.67
2022-07-27T09:53:56.234Z,83.03
2022-07-27T10:02:17.928Z,81.48
2022-07-27T10:10:39.607Z,69.90
2022-07-27T10:19:10.297Z,80.81
2022-07-27T10:27:31.962Z,74.81
2022-07-27T10:35:53.633Z,84.46
2022-07-27T10:44:17.799Z,76.78
2022-07-27T10:52:40.479Z,64.90
2022-07-27T11:01:03.221Z,58.92
2022-07-27T11:18:06.561Z,64.05
2022-07-27T11:26:29.616Z,61.07
2022-07-27T11:34:51.472Z,56.37
2022-07-27T11:43:14.561Z,59.77
2022-07-27T11:51:38.605Z,59.03
2022-07-27T12:00:00.281Z,59.87
2022-07-27T12:08:21.897Z,52.80
2022-07-27T12:16:43.929Z,53.86
2022-07-27T12:25:12.642Z,52.72
2022-07-27T12:33:42.575Z,54.88
2022-07-27T12:42:08.166Z,56.50
2022-07-27T12:50:29.851Z,55.02
2022-07-27T12:59:01.079Z,57.65
2022-07-27T13:07:22.805Z,56.55
2022-07-27T13:15:44.583Z,57.29
2022-07-27T13:24:08.999Z,60.81
2022-07-27T13:32:30.838Z,60.67
2022-07-27T13:40:52.600Z,57.40
2022-07-27T13:49:15.063Z,53.40
2022-07-27T13:57:37.114Z,52.28
2022-07-27T14:05:58.813Z,56.49
2022-07-27T14:14:26.754Z,52.95
2022-07-27T14:22:48.841Z,54.36
2022-07-27T14:31:11.410Z,55.35
2022-07-27T14:39:33.332Z,54.90
2022-07-27T14:47:55.127Z,54.59
2022-07-27T14:56:16.870Z,52.81
2022-07-27T15:04:38.636Z,50.81
2022-07-27T15:13:00.371Z,52.37
2022-07-27T15:21:21.998Z,51.38
2022-07-27T15:29:43.770Z,51.38
2022-07-27T15:38:05.490Z,51.93
2022-07-27T15:46:27.462Z,52.44
2022-07-27T15:54:49.629Z,53.97
2022-07-27T16:03:12.179Z,55.56
2022-07-27T16:11:34.057Z,56.55
2022-07-27T16:19:57.614Z,57.03
2022-07-27T16:28:19.258Z,57.88
2022-07-27T16:36:40.949Z,58.29
2022-07-27T16:45:02.588Z,61.71
2022-07-27T16:53:24.299Z,61.54
2022-07-27T17:01:46.968Z,61.51
2022-07-27T17:10:08.915Z,61.57
2022-07-27T17:18:35.530Z,62.38
2022-07-27T17:27:00.878Z,60.31
2022-07-27T17:35:22.428Z,60.44
2022-07-27T17:43:44.000Z,57.76
2022-07-27T17:52:07.078Z,59.16
2022-07-27T18:00:29.349Z,63.66
2022-07-27T18:08:51.117Z,68.18
2022-07-27T18:48:16.011Z,66.01
2022-07-27T18:49:18.229Z,67.08
2022-07-27T19:11:10.592Z,72.78
2022-07-27T19:25:36.271Z,85.96
2022-07-27T19:33:58.268Z,100.00
